KRST/RST METAR and TAF weather

Enter ICAO airport designator
Station Type Date Time Source
KRST METAR 2019/02/21 15:54 UTC NOAA

KRST 211554Z 29009KT 10SM CLR M12/M15 A3009 RMK AO2 SLP219 T11221150


Station Type Date Time Source
KRST Decoded METAR 2019/02/21 15:54 UTC NOAA

ROCHESTER INTERNATIONAL AIRPORT , MN, United States (KRST) 43-54N 092-30W 403M
Feb 21, 2019 - 10:54 AM EST / 2019.02.21 1554 UTC
Wind: from the WNW (290 degrees) at 10 MPH (9 KT):0
Visibility: 10 mile(s):0
Sky conditions: clear
Temperature: 10.0 F (-12.2 C)
Windchill: -4 F (-20 C):1
Dew Point: 5.0 F (-15.0 C)
Relative Humidity: 79%
Pressure (altimeter): 30.09 in. Hg (1018 hPa)
ob: KRST 211554Z 29009KT 10SM CLR M12/M15 A3009 RMK AO2 SLP219 T11221150
cycle: 16

Station Type Date Time Source
KRST TAF 2019/02/21 12:36 UTC NOAA

TAF KRST 211133Z 2112/2212 25010KT P6SM FEW250
FM220400 23007KT P6SM BKN060


Example: see airport list